Time;durP1;ratioP1;P1;durP2;ratioP2;P2;SDS_P1;SDS_P2;PMS_P1;PMS_P2;Temp;Humidity;BMP_temperature;BMP_pressure;BME280_temperature;BME280_humidity;BME280_pressure;Samples;Min_cycle;Max_cycle;Signal;HPM_P1;HPM_P2
2021/12/30 00:00:19;;;;;;;31.50;11.50;;;4.60;99.90;;;;;;5027739;28;20737;-73
2021/12/30 00:02:46;;;;;;;26.53;11.87;;;4.50;99.90;;;;;;5027092;28;20217;-73
2021/12/30 00:05:14;;;;;;;25.00;11.63;;;4.60;99.90;;;;;;5027677;28;20730;-73
2021/12/30 00:07:42;;;;;;;23.57;11.07;;;4.60;99.90;;;;;;5027527;28;20213;-73
2021/12/30 00:10:09;;;;;;;23.47;11.23;;;4.50;99.90;;;;;;5027196;28;20205;-73
2021/12/30 00:12:36;;;;;;;27.13;12.10;;;4.50;99.90;;;;;;5026542;28;20212;-73
2021/12/30 00:15:06;;;;;;;22.07;10.33;;;4.50;99.90;;;;;;5027904;28;20207;-72
2021/12/30 00:17:33;;;;;;;20.63;9.97;;;4.60;99.90;;;;;;5025752;28;20748;-73
2021/12/30 00:20:01;;;;;;;22.77;10.70;;;4.60;99.90;;;;;;5025572;28;20208;-73
2021/12/30 00:22:28;;;;;;;21.87;11.27;;;4.50;99.90;;;;;;5026644;28;20660;-73
2021/12/30 00:24:56;;;;;;;27.17;11.87;;;4.50;99.90;;;;;;5025833;28;20208;-73
2021/12/30 00:27:23;;;;;;;39.17;12.17;;;4.50;99.90;;;;;;5026459;28;20664;-73
2021/12/30 00:29:50;;;;;;;26.93;12.20;;;4.50;99.90;;;;;;5027003;28;20212;-73
2021/12/30 00:32:18;;;;;;;27.83;11.93;;;4.50;99.90;;;;;;5024719;28;20208;-72
2021/12/30 00:34:45;;;;;;;23.47;11.73;;;4.40;99.90;;;;;;5027795;28;20216;-72
2021/12/30 00:37:11;;;;;;;28.50;12.47;;;4.50;99.90;;;;;;5027310;28;20240;-72
2021/12/30 00:39:38;;;;;;;27.10;13.07;;;4.50;99.90;;;;;;5026634;28;20597;-72
2021/12/30 00:42:07;;;;;;;28.87;14.30;;;4.50;99.90;;;;;;5026640;28;20213;-72
2021/12/30 00:44:34;;;;;;;31.77;15.50;;;4.50;99.90;;;;;;5026572;28;20212;-72
2021/12/30 00:47:00;;;;;;;32.20;15.27;;;4.60;99.90;;;;;;5026793;28;20235;-71
2021/12/30 00:49:27;;;;;;;29.80;15.70;;;4.60;99.90;;;;;;5027984;28;20205;-72
2021/12/30 00:51:55;;;;;;;34.10;15.70;;;4.60;99.90;;;;;;5026050;28;20217;-72
2021/12/30 00:54:22;;;;;;;32.47;15.47;;;4.70;99.90;;;;;;5025603;28;20212;-72
2021/12/30 00:56:49;;;;;;;33.93;15.23;;;4.70;99.90;;;;;;5027264;28;20236;-72
2021/12/30 00:59:17;;;;;;;36.17;16.80;;;4.70;99.90;;;;;;5024317;28;20204;-71
2021/12/30 01:01:44;;;;;;;37.63;16.20;;;4.70;99.90;;;;;;5026658;28;20667;-71
2021/12/30 01:04:11;;;;;;;33.90;16.03;;;4.70;99.90;;;;;;5027394;28;20213;-71
2021/12/30 01:06:38;;;;;;;37.43;16.80;;;4.70;99.90;;;;;;5028708;28;20274;-71
2021/12/30 01:09:06;;;;;;;30.67;15.57;;;4.70;99.90;;;;;;5031261;28;20217;-72
2021/12/30 01:11:33;;;;;;;32.13;15.33;;;4.70;99.90;;;;;;5030143;28;20204;-71
2021/12/30 01:14:03;;;;;;;30.10;15.97;;;4.70;99.90;;;;;;5028957;28;20664;-71
2021/12/30 01:16:36;;;;;;;38.30;15.40;;;4.80;99.90;;;;;;5030943;28;20239;-72
2021/12/30 01:19:21;;;;;;;31.87;15.47;;;4.80;99.90;;;;;;5030678;28;20675;-71
2021/12/30 01:21:48;;;;;;;34.83;16.87;;;4.80;99.90;;;;;;5029063;28;20204;-71
2021/12/30 01:24:15;;;;;;;31.37;15.67;;;4.80;99.90;;;;;;5029791;28;20259;-72
2021/12/30 01:26:42;;;;;;;33.10;15.63;;;4.80;99.90;;;;;;5030538;28;20262;-71
2021/12/30 01:29:08;;;;;;;30.40;15.73;;;4.80;99.90;;;;;;5029087;28;20279;-71
2021/12/30 01:31:36;;;;;;;31.93;16.27;;;4.80;99.90;;;;;;5030716;28;20219;-72
2021/12/30 01:34:03;;;;;;;30.40;16.50;;;4.80;99.90;;;;;;5030193;28;20232;-72
2021/12/30 01:36:30;;;;;;;33.40;16.73;;;4.80;99.90;;;;;;5029607;28;20278;-72
2021/12/30 01:38:57;;;;;;;29.43;15.80;;;4.70;99.90;;;;;;5013919;28;20302;-72
2021/12/30 01:41:24;;;;;;;36.80;16.43;;;4.70;99.90;;;;;;5030277;28;20213;-72
2021/12/30 01:43:51;;;;;;;30.57;16.33;;;4.70;99.90;;;;;;5028514;28;20212;-71
2021/12/30 01:46:17;;;;;;;31.47;16.07;;;4.70;99.90;;;;;;5030228;28;20667;-71
2021/12/30 01:48:45;;;;;;;30.13;15.50;;;4.70;99.90;;;;;;5029296;28;20205;-72
2021/12/30 01:51:14;;;;;;;31.70;16.40;;;4.70;99.90;;;;;;5028926;28;20205;-71
2021/12/30 01:53:41;;;;;;;29.90;15.70;;;4.70;99.90;;;;;;5029453;28;20209;-73
2021/12/30 01:56:08;;;;;;;33.87;15.60;;;4.70;99.90;;;;;;5029186;28;20236;-73
2021/12/30 01:58:36;;;;;;;31.20;15.70;;;4.70;99.90;;;;;;5027544;28;20271;-73
2021/12/30 02:01:06;;;;;;;29.87;15.03;;;4.70;99.90;;;;;;5029560;28;20304;-73
2021/12/30 02:03:32;;;;;;;26.97;14.47;;;4.70;99.90;;;;;;5028460;28;20235;-72
2021/12/30 02:06:00;;;;;;;30.57;15.57;;;4.70;99.90;;;;;;5030032;28;20216;-72
2021/12/30 02:08:27;;;;;;;28.50;15.63;;;4.60;99.90;;;;;;5029653;28;20213;-72
2021/12/30 02:10:54;;;;;;;27.80;15.43;;;4.60;99.90;;;;;;5029539;28;20208;-72
2021/12/30 02:13:21;;;;;;;33.87;16.37;;;4.60;99.90;;;;;;5027590;28;20671;-72
2021/12/30 02:15:49;;;;;;;28.53;15.73;;;4.60;99.90;;;;;;5029507;28;20715;-73
2021/12/30 02:18:16;;;;;;;35.13;16.77;;;4.60;99.90;;;;;;5028741;28;20236;-72
2021/12/30 02:20:49;;;;;;;37.37;16.30;;;4.60;99.90;;;;;;5028673;28;20228;-73
2021/12/30 02:23:18;;;;;;;32.70;16.70;;;4.70;99.90;;;;;;5029056;28;21104;-72
2021/12/30 02:25:46;;;;;;;30.97;15.67;;;4.70;99.90;;;;;;5029055;28;20262;-73
2021/12/30 02:28:16;;;;;;;31.50;15.67;;;4.60;99.90;;;;;;5029591;28;20205;-73
2021/12/30 02:30:44;;;;;;;27.77;15.40;;;4.60;99.90;;;;;;5028895;28;20714;-73
2021/12/30 02:33:11;;;;;;;28.90;15.70;;;4.70;99.90;;;;;;5028970;28;20205;-72
2021/12/30 02:35:38;;;;;;;32.10;16.03;;;4.60;99.90;;;;;;5029617;28;20225;-72
2021/12/30 02:38:07;;;;;;;28.17;14.50;;;4.60;99.90;;;;;;5029441;28;20240;-72
2021/12/30 02:40:36;;;;;;;30.00;14.50;;;4.50;99.90;;;;;;5029131;28;20230;-72
2021/12/30 02:43:05;;;;;;;28.73;15.23;;;4.60;99.90;;;;;;5029559;28;20205;-72
2021/12/30 02:45:31;;;;;;;30.70;16.10;;;4.60;99.90;;;;;;5029212;28;20205;-71
2021/12/30 02:47:58;;;;;;;27.23;14.17;;;4.60;99.90;;;;;;5027830;28;20262;-71
2021/12/30 02:50:25;;;;;;;29.50;15.90;;;4.70;99.90;;;;;;5028818;28;20216;-71
2021/12/30 02:52:52;;;;;;;31.13;15.07;;;4.80;99.90;;;;;;5028269;28;20283;-71
2021/12/30 02:55:20;;;;;;;28.43;15.40;;;4.70;99.90;;;;;;5027719;28;20290;-71
2021/12/30 02:57:47;;;;;;;29.67;16.10;;;4.90;99.90;;;;;;5029376;28;20240;-71
2021/12/30 03:00:14;;;;;;;31.07;14.97;;;5.20;99.90;;;;;;5027875;28;20266;-71
2021/12/30 03:02:41;;;;;;;28.93;15.57;;;5.30;99.90;;;;;;5028897;28;20208;-71
2021/12/30 03:05:09;;;;;;;30.97;16.97;;;5.50;99.90;;;;;;5030119;28;20204;-71
2021/12/30 03:07:37;;;;;;;32.57;16.40;;;5.80;99.90;;;;;;5027677;28;20621;-72
2021/12/30 03:10:05;;;;;;;27.93;15.83;;;5.90;99.90;;;;;;5029218;28;20205;-72
2021/12/30 03:12:33;;;;;;;29.63;16.60;;;5.90;99.90;;;;;;5028705;28;20209;-71
2021/12/30 03:15:00;;;;;;;31.10;15.43;;;6.00;99.90;;;;;;5028169;28;20262;-72
2021/12/30 03:17:27;;;;;;;24.70;14.83;;;6.00;99.90;;;;;;5026467;28;20325;-72
2021/12/30 03:19:56;;;;;;;25.00;14.50;;;6.10;99.90;;;;;;5027701;28;20235;-72
2021/12/30 03:22:23;;;;;;;25.10;14.27;;;6.10;99.90;;;;;;5026095;28;20240;-71
2021/12/30 03:24:50;;;;;;;24.57;14.00;;;6.10;99.90;;;;;;5028794;28;20205;-71
2021/12/30 03:27:16;;;;;;;24.70;14.03;;;6.10;99.90;;;;;;5028928;28;20262;-71
2021/12/30 03:29:45;;;;;;;19.37;12.97;;;6.10;99.90;;;;;;5026198;28;20209;-71
2021/12/30 03:32:11;;;;;;;19.60;11.67;;;6.10;99.90;;;;;;5026475;28;20277;-71
2021/12/30 03:34:38;;;;;;;16.43;11.93;;;6.10;99.90;;;;;;5028612;28;20217;-71
2021/12/30 03:37:05;;;;;;;19.07;11.87;;;6.30;99.90;;;;;;5026717;28;20737;-71
2021/12/30 03:39:31;;;;;;;19.30;11.90;;;6.30;99.90;;;;;;5028433;28;20247;-71
2021/12/30 03:41:59;;;;;;;18.20;11.97;;;6.30;99.90;;;;;;5027030;28;20676;-71
2021/12/30 03:44:26;;;;;;;16.67;11.13;;;6.40;99.90;;;;;;5026603;28;20704;-72
2021/12/30 03:46:54;;;;;;;16.60;10.70;;;6.40;99.90;;;;;;5027081;28;20360;-71
2021/12/30 03:49:21;;;;;;;18.60;11.43;;;6.50;99.90;;;;;;5026759;28;20212;-71
2021/12/30 03:51:49;;;;;;;18.80;12.10;;;6.60;99.90;;;;;;5026570;28;20294;-71
2021/12/30 03:54:16;;;;;;;23.50;13.20;;;6.60;99.90;;;;;;5027445;28;20688;-71
2021/12/30 03:56:43;;;;;;;23.40;13.07;;;6.60;99.90;;;;;;5027452;28;20212;-70
2021/12/30 03:59:10;;;;;;;25.03;13.53;;;6.70;99.90;;;;;;5027734;28;20235;-70
2021/12/30 04:01:37;;;;;;;26.93;13.93;;;6.70;99.90;;;;;;5027491;28;20638;-70
2021/12/30 04:04:05;;;;;;;29.67;14.60;;;6.80;99.90;;;;;;5024931;28;20205;-70
2021/12/30 04:06:32;;;;;;;30.77;14.70;;;6.70;99.90;;;;;;5027845;28;20215;-70
2021/12/30 04:09:00;;;;;;;31.80;15.20;;;6.70;99.90;;;;;;5027846;28;20655;-70
2021/12/30 04:11:30;;;;;;;35.67;15.30;;;6.80;99.90;;;;;;5027229;28;20209;-70
2021/12/30 04:13:57;;;;;;;34.60;15.40;;;6.80;99.90;;;;;;5025972;28;20727;-70
2021/12/30 04:16:24;;;;;;;35.17;16.37;;;6.80;99.90;;;;;;5026679;28;20258;-70
2021/12/30 04:18:50;;;;;;;46.93;16.33;;;6.90;99.90;;;;;;5025596;28;20228;-70
2021/12/30 04:21:19;;;;;;;45.07;16.83;;;6.90;99.90;;;;;;5027771;28;20270;-70
2021/12/30 04:23:46;;;;;;;50.10;16.10;;;7.00;99.90;;;;;;5027548;28;20707;-70
2021/12/30 04:26:13;;;;;;;39.43;16.67;;;6.90;99.90;;;;;;5027064;28;20256;-70
2021/12/30 04:28:40;;;;;;;47.87;18.43;;;6.90;99.90;;;;;;5025894;28;20892;-70
2021/12/30 04:31:07;;;;;;;48.10;18.00;;;7.00;99.90;;;;;;5027500;28;20254;-70
2021/12/30 04:33:34;;;;;;;43.37;18.77;;;7.00;99.90;;;;;;5025757;28;20209;-70
2021/12/30 04:36:00;;;;;;;43.00;17.17;;;7.00;99.90;;;;;;5027547;28;20631;-70
2021/12/30 04:38:30;;;;;;;45.13;18.53;;;6.90;99.90;;;;;;5026692;28;20240;-70
2021/12/30 04:40:57;;;;;;;59.93;18.80;;;7.00;99.90;;;;;;5025474;28;20272;-70
2021/12/30 04:43:24;;;;;;;46.73;19.47;;;7.00;99.90;;;;;;5025377;28;20698;-70
2021/12/30 04:45:51;;;;;;;43.83;19.00;;;7.00;99.90;;;;;;5026840;28;20282;-70
2021/12/30 04:48:19;;;;;;;48.07;18.70;;;7.00;99.90;;;;;;5026797;28;20215;-70
2021/12/30 04:50:46;;;;;;;51.10;18.30;;;7.00;99.90;;;;;;5027484;28;20306;-70
2021/12/30 04:53:13;;;;;;;51.90;19.73;;;7.00;99.90;;;;;;5025957;28;20220;-71
2021/12/30 04:55:41;;;;;;;45.80;18.53;;;7.00;99.90;;;;;;5025526;28;20237;-70
2021/12/30 04:58:08;;;;;;;49.70;20.60;;;7.00;99.90;;;;;;5027192;28;20236;-71
2021/12/30 05:00:35;;;;;;;45.27;20.90;;;7.10;99.90;;;;;;5024121;28;20270;-70
2021/12/30 05:03:12;;;;;;;52.07;21.23;;;7.10;99.90;;;;;;5026776;28;20212;-71
2021/12/30 05:05:41;;;;;;;49.97;22.43;;;7.20;99.90;;;;;;5026178;28;20562;-71
2021/12/30 05:08:08;;;;;;;53.40;21.47;;;7.20;99.90;;;;;;5025030;28;20216;-71
2021/12/30 05:10:35;;;;;;;65.30;21.27;;;7.20;99.90;;;;;;5025402;28;20726;-71
2021/12/30 05:13:04;;;;;;;59.30;20.20;;;7.20;99.90;;;;;;5026781;28;20656;-71
2021/12/30 05:15:31;;;;;;;50.60;21.43;;;7.30;99.90;;;;;;5025691;28;20566;-71
2021/12/30 05:17:58;;;;;;;55.13;20.93;;;7.30;99.90;;;;;;5025531;28;20233;-71
2021/12/30 05:20:25;;;;;;;46.53;21.03;;;7.30;99.90;;;;;;5027102;28;20220;-71
2021/12/30 05:22:52;;;;;;;51.80;20.57;;;7.30;99.90;;;;;;5026541;28;20212;-71
2021/12/30 05:25:19;;;;;;;54.93;22.60;;;7.30;99.90;;;;;;5025793;28;20209;-71
2021/12/30 05:27:46;;;;;;;53.50;21.60;;;7.30;99.90;;;;;;5027015;28;20231;-71
2021/12/30 05:30:16;;;;;;;51.53;20.63;;;7.30;99.90;;;;;;5026448;28;20213;-71
2021/12/30 05:32:43;;;;;;;52.03;19.90;;;7.40;99.90;;;;;;5025640;28;20266;-71
2021/12/30 05:35:12;;;;;;;47.50;22.03;;;7.30;99.90;;;;;;5027012;28;20209;-72
2021/12/30 05:37:40;;;;;;;46.37;20.23;;;7.30;99.90;;;;;;5026169;28;20232;-71
2021/12/30 05:40:09;;;;;;;48.10;21.23;;;7.40;99.90;;;;;;5026964;28;20232;-71
2021/12/30 05:42:37;;;;;;;53.10;22.53;;;7.40;99.90;;;;;;5026331;28;20217;-71
2021/12/30 05:45:05;;;;;;;59.40;21.40;;;7.40;99.90;;;;;;5026301;28;20641;-71
2021/12/30 05:47:33;;;;;;;50.13;21.20;;;7.40;99.90;;;;;;5027065;28;20213;-70
2021/12/30 05:50:00;;;;;;;42.83;19.80;;;7.40;99.90;;;;;;5026362;28;20231;-71
2021/12/30 05:52:27;;;;;;;53.10;20.67;;;7.40;99.90;;;;;;5025303;28;20584;-71
2021/12/30 05:54:54;;;;;;;50.30;21.13;;;7.40;99.90;;;;;;5029470;28;20225;-71
2021/12/30 05:57:20;;;;;;;48.43;20.33;;;7.50;99.90;;;;;;5021994;28;20273;-70
2021/12/30 05:59:47;;;;;;;46.77;20.20;;;7.50;99.90;;;;;;5020865;28;20306;-70
2021/12/30 06:02:14;;;;;;;42.13;19.77;;;7.50;99.90;;;;;;5030808;28;20209;-70
2021/12/30 06:04:43;;;;;;;46.03;19.83;;;7.50;99.90;;;;;;5028780;28;20629;-71
2021/12/30 06:07:10;;;;;;;42.20;19.47;;;7.50;99.90;;;;;;5030170;28;20300;-70
2021/12/30 06:09:37;;;;;;;46.13;19.10;;;7.50;99.90;;;;;;5030482;28;20685;-71
2021/12/30 06:12:04;;;;;;;43.90;18.53;;;7.50;99.90;;;;;;5029410;28;20224;-70
2021/12/30 06:14:31;;;;;;;44.47;18.77;;;7.40;99.90;;;;;;5028955;28;20236;-71
2021/12/30 06:16:57;;;;;;;44.77;18.90;;;7.40;99.90;;;;;;5028993;28;20228;-70
2021/12/30 06:19:24;;;;;;;47.57;18.07;;;7.50;99.90;;;;;;5026908;28;20623;-71
2021/12/30 06:21:52;;;;;;;44.80;18.20;;;7.50;99.90;;;;;;5026534;28;20690;-71
2021/12/30 06:24:19;;;;;;;41.70;17.97;;;7.40;99.90;;;;;;5030056;28;20208;-71
2021/12/30 06:26:45;;;;;;;40.67;18.53;;;7.40;99.90;;;;;;5028779;28;20205;-70
2021/12/30 06:29:12;;;;;;;40.00;18.40;;;7.40;99.90;;;;;;5028528;28;20220;-70
2021/12/30 06:31:40;;;;;;;46.97;16.43;;;7.40;99.90;;;;;;5029511;28;20334;-70
2021/12/30 06:34:06;;;;;;;39.03;18.43;;;7.30;99.90;;;;;;5027802;28;20205;-70
2021/12/30 06:36:33;;;;;;;43.03;18.80;;;7.30;99.90;;;;;;5028725;28;20205;-70
2021/12/30 06:39:01;;;;;;;41.27;17.20;;;7.30;99.90;;;;;;5028724;28;20244;-71
2021/12/30 06:41:28;;;;;;;37.33;17.27;;;7.30;99.90;;;;;;5029010;28;20205;-70
2021/12/30 06:43:55;;;;;;;36.87;16.43;;;7.30;99.90;;;;;;5028290;28;20209;-70
2021/12/30 06:46:23;;;;;;;40.53;17.40;;;7.30;99.90;;;;;;5029378;28;20208;-70
2021/12/30 06:48:50;;;;;;;39.73;16.90;;;7.20;99.90;;;;;;5027398;28;20655;-71
2021/12/30 06:51:18;;;;;;;36.67;17.13;;;7.20;99.90;;;;;;5029220;28;20212;-71
2021/12/30 06:53:45;;;;;;;43.93;16.60;;;7.20;99.90;;;;;;5028348;28;20260;-72
2021/12/30 06:56:14;;;;;;;36.00;17.33;;;7.20;99.90;;;;;;5028075;28;20259;-72
2021/12/30 06:58:40;;;;;;;37.23;17.60;;;7.20;99.90;;;;;;5028670;28;20252;-72
2021/12/30 07:01:07;;;;;;;47.13;18.37;;;7.20;99.90;;;;;;5027496;28;20201;-71
2021/12/30 07:03:34;;;;;;;43.30;18.30;;;7.20;99.90;;;;;;5028689;28;20267;-71
2021/12/30 07:06:00;;;;;;;36.07;17.10;;;7.10;99.90;;;;;;5020574;28;20244;-71
2021/12/30 07:08:27;;;;;;;36.13;15.43;;;7.10;99.90;;;;;;5025283;28;20205;-71
2021/12/30 07:10:58;;;;;;;37.50;16.53;;;7.10;99.90;;;;;;5028792;28;20212;-70
2021/12/30 07:13:26;;;;;;;41.40;17.70;;;7.10;99.90;;;;;;5028850;28;20730;-71
2021/12/30 07:15:53;;;;;;;37.40;16.63;;;7.20;99.90;;;;;;5027730;28;20704;-72
2021/12/30 07:18:19;;;;;;;39.07;16.67;;;7.20;99.90;;;;;;5028541;28;20225;-72
2021/12/30 07:20:46;;;;;;;37.70;17.80;;;7.20;99.90;;;;;;5028874;28;20212;-72
2021/12/30 07:23:13;;;;;;;36.87;16.83;;;7.20;99.90;;;;;;5027880;28;20205;-72
2021/12/30 07:25:40;;;;;;;44.43;16.40;;;7.30;99.90;;;;;;5027746;28;20248;-72
2021/12/30 07:28:07;;;;;;;37.80;15.57;;;7.20;99.90;;;;;;5028222;28;20739;-72
2021/12/30 07:30:36;;;;;;;36.37;14.70;;;7.20;99.90;;;;;;5027994;28;20204;-71
2021/12/30 07:33:06;;;;;;;22.87;12.60;;;7.20;99.90;;;;;;5028953;28;20573;-71
2021/12/30 07:35:33;;;;;;;25.87;11.50;;;7.20;99.90;;;;;;5027465;28;20216;-71
2021/12/30 07:38:00;;;;;;;24.70;11.17;;;7.10;99.90;;;;;;5026575;28;20778;-72
2021/12/30 07:40:27;;;;;;;14.03;9.43;;;7.00;99.90;;;;;;5027072;28;20785;-72
2021/12/30 07:42:53;;;;;;;15.47;8.83;;;7.00;99.90;;;;;;5027717;28;20213;-72
2021/12/30 07:45:20;;;;;;;22.67;10.70;;;6.90;99.90;;;;;;5027007;28;20213;-72
2021/12/30 07:47:49;;;;;;;24.33;11.13;;;6.90;99.90;;;;;;5028560;28;20208;-72
2021/12/30 07:50:15;;;;;;;23.40;10.23;;;6.90;99.90;;;;;;5027810;28;20864;-73
2021/12/30 07:52:42;;;;;;;29.43;11.70;;;6.80;99.90;;;;;;5022599;28;20616;-69
2021/12/30 07:55:11;;;;;;;28.70;11.43;;;6.90;99.90;;;;;;5027484;28;20232;-69
2021/12/30 07:57:38;;;;;;;24.57;10.73;;;6.90;99.90;;;;;;5027152;28;20217;-69
2021/12/30 08:00:08;;;;;;;26.77;10.87;;;7.00;99.90;;;;;;5024420;28;20286;-70
2021/12/30 08:02:35;;;;;;;25.87;13.27;;;7.10;99.90;;;;;;5028021;28;20219;-71
2021/12/30 08:05:04;;;;;;;33.57;12.33;;;7.00;99.90;;;;;;5027178;28;20286;-71
2021/12/30 08:07:30;;;;;;;26.17;11.63;;;7.20;99.90;;;;;;5028131;28;20618;-71
2021/12/30 08:09:57;;;;;;;33.17;11.73;;;7.10;99.90;;;;;;5026954;28;20661;-70
2021/12/30 08:12:24;;;;;;;50.03;11.40;;;7.10;99.90;;;;;;5027405;28;20258;-70
2021/12/30 08:14:50;;;;;;;81.47;23.57;;;7.10;99.90;;;;;;5026474;28;20208;-70
2021/12/30 08:17:17;;;;;;;45.73;24.93;;;6.90;99.90;;;;;;5021031;28;20205;-71
2021/12/30 08:19:44;;;;;;;26.37;14.30;;;6.80;99.90;;;;;;5024458;28;20663;-71
2021/12/30 08:22:12;;;;;;;20.00;10.20;;;6.80;99.90;;;;;;5027781;28;20240;-71
2021/12/30 08:24:39;;;;;;;19.33;9.53;;;6.80;99.90;;;;;;5027046;28;20209;-71
2021/12/30 08:27:06;;;;;;;22.50;10.17;;;6.70;99.90;;;;;;5024813;28;20275;-71
2021/12/30 08:29:33;;;;;;;20.97;11.30;;;6.70;99.90;;;;;;5027219;28;20209;-70
2021/12/30 08:32:00;;;;;;;20.90;10.27;;;6.70;99.90;;;;;;5026989;28;20303;-70
2021/12/30 08:34:26;;;;;;;38.63;11.83;;;6.80;99.90;;;;;;5026923;28;20619;-71
2021/12/30 08:36:53;;;;;;;27.53;12.40;;;6.80;99.90;;;;;;5026881;28;20228;-72
2021/12/30 08:39:21;;;;;;;40.37;14.73;;;6.90;99.90;;;;;;5025689;28;20711;-71
2021/12/30 08:41:47;;;;;;;33.23;13.37;;;7.10;99.90;;;;;;5026769;28;20251;-71
2021/12/30 08:44:14;;;;;;;32.73;14.17;;;7.30;99.90;;;;;;5027589;28;20263;-70
2021/12/30 08:46:41;;;;;;;31.60;13.83;;;7.30;99.90;;;;;;5026724;28;20270;-71
2021/12/30 08:49:07;;;;;;;33.80;12.93;;;7.40;99.90;;;;;;5027231;28;20278;-69
2021/12/30 08:51:36;;;;;;;35.10;12.77;;;7.30;99.90;;;;;;5024221;28;20264;-70
2021/12/30 08:54:03;;;;;;;28.03;11.63;;;7.30;99.90;;;;;;5025238;28;20232;-70
2021/12/30 08:56:31;;;;;;;27.67;10.47;;;7.20;99.90;;;;;;5026086;28;20580;-70
2021/12/30 08:58:58;;;;;;;26.63;10.70;;;7.20;99.90;;;;;;5026574;28;20662;-71
2021/12/30 09:01:26;;;;;;;31.60;12.00;;;7.10;99.90;;;;;;5026742;28;20209;-71
2021/12/30 09:03:52;;;;;;;31.93;10.87;;;7.00;99.90;;;;;;5027048;28;20351;-70
2021/12/30 09:06:19;;;;;;;29.93;11.93;;;7.10;99.90;;;;;;5026544;28;20282;-70
2021/12/30 09:08:46;;;;;;;26.70;12.17;;;7.20;99.90;;;;;;5025599;28;20255;-69
2021/12/30 09:11:13;;;;;;;27.80;12.50;;;7.30;99.90;;;;;;5018565;28;20231;-69
2021/12/30 09:13:41;;;;;;;23.83;11.00;;;7.30;99.90;;;;;;5021724;28;20208;-69
2021/12/30 09:16:07;;;;;;;31.83;12.00;;;7.30;99.90;;;;;;5019222;28;20992;-69
2021/12/30 09:18:34;;;;;;;32.20;11.83;;;7.30;99.90;;;;;;5023840;28;20247;-69
2021/12/30 09:21:01;;;;;;;30.77;11.33;;;7.30;99.90;;;;;;5021494;28;20337;-69
2021/12/30 09:23:28;;;;;;;27.73;12.00;;;7.30;99.90;;;;;;5020614;28;20217;-67
2021/12/30 09:25:56;;;;;;;23.60;12.13;;;7.40;99.90;;;;;;5023247;28;20220;-67
2021/12/30 09:28:24;;;;;;;28.53;11.80;;;7.40;99.90;;;;;;5019681;28;20210;-69
2021/12/30 09:30:52;;;;;;;25.30;10.83;;;7.50;99.90;;;;;;5013091;28;20687;-69
2021/12/30 09:33:19;;;;;;;22.83;10.27;;;7.50;99.90;;;;;;5022820;28;20212;-69
2021/12/30 09:35:48;;;;;;;21.27;9.87;;;7.40;99.90;;;;;;5026342;28;20209;-69
2021/12/30 09:38:15;;;;;;;17.20;10.00;;;7.30;99.90;;;;;;5023689;28;20228;-70
2021/12/30 09:40:42;;;;;;;26.17;9.67;;;7.30;99.90;;;;;;5027448;28;20248;-69
2021/12/30 09:43:11;;;;;;;30.07;10.87;;;7.30;99.90;;;;;;5025743;28;20657;-70
2021/12/30 09:45:39;;;;;;;27.97;10.43;;;7.70;99.90;;;;;;5028338;28;20204;-70
2021/12/30 09:48:10;;;;;;;27.57;10.37;;;7.70;99.90;;;;;;5026826;28;20208;-69
2021/12/30 09:50:40;;;;;;;19.57;9.00;;;7.80;99.90;;;;;;5028082;28;20227;-70
2021/12/30 09:53:08;;;;;;;30.17;9.77;;;7.70;99.90;;;;;;5012704;28;20233;-69
2021/12/30 09:55:35;;;;;;;21.37;8.77;;;7.70;99.90;;;;;;5025441;28;20212;-69
2021/12/30 09:58:02;;;;;;;25.03;9.87;;;7.60;99.90;;;;;;5027641;28;20217;-69
2021/12/30 10:00:30;;;;;;;22.47;8.40;;;7.50;99.90;;;;;;5022960;28;20286;-69
2021/12/30 10:02:57;;;;;;;25.97;8.93;;;7.50;99.90;;;;;;5019449;28;20282;-69
2021/12/30 10:05:28;;;;;;;19.73;8.77;;;7.50;99.90;;;;;;5027579;28;20666;-69
2021/12/30 10:08:09;;;;;;;14.70;8.70;;;7.40;99.90;;;;;;5020277;28;20209;-70
2021/12/30 10:10:38;;;;;;;17.47;8.67;;;7.40;99.90;;;;;;5020867;28;20208;-69
2021/12/30 10:13:24;;;;;;;23.27;8.67;;;7.40;99.90;;;;;;5027288;28;20222;-69
2021/12/30 10:15:54;;;;;;;15.20;8.07;;;7.40;99.90;;;;;;5027650;28;20241;-69
2021/12/30 10:18:23;;;;;;;23.33;9.50;;;7.40;99.90;;;;;;5026265;28;20240;-70
2021/12/30 10:20:52;;;;;;;19.57;8.90;;;7.30;99.90;;;;;;5027607;28;20232;-70
2021/12/30 10:23:22;;;;;;;25.13;9.23;;;7.20;99.90;;;;;;5026677;28;20205;-70
2021/12/30 10:25:50;;;;;;;27.03;10.10;;;7.20;99.90;;;;;;5027095;28;20626;-69
2021/12/30 10:28:30;;;;;;;22.13;8.37;;;7.20;99.90;;;;;;5027895;28;20668;-69
2021/12/30 10:30:59;;;;;;;23.47;9.83;;;7.40;99.90;;;;;;5027010;28;20231;-70
2021/12/30 10:33:28;;;;;;;18.80;8.63;;;7.40;99.90;;;;;;5026006;28;20204;-69
2021/12/30 10:35:57;;;;;;;19.80;9.97;;;7.40;99.90;;;;;;5026151;28;20282;-69
2021/12/30 10:38:29;;;;;;;22.83;9.50;;;7.30;99.90;;;;;;5024866;28;20275;-69
2021/12/30 10:41:01;;;;;;;24.30;8.77;;;7.30;99.90;;;;;;5027475;28;20232;-69
2021/12/30 10:43:32;;;;;;;20.37;9.50;;;7.50;99.90;;;;;;5026839;28;20259;-69
2021/12/30 10:46:12;;;;;;;24.53;9.77;;;7.60;99.90;;;;;;5026538;28;20208;-69
2021/12/30 10:48:51;;;;;;;21.10;9.67;;;7.70;99.90;;;;;;5026535;28;20745;-69
2021/12/30 10:51:21;;;;;;;19.77;9.20;;;7.70;99.90;;;;;;5024861;28;20699;-69
2021/12/30 10:53:48;;;;;;;30.37;9.50;;;7.70;99.90;;;;;;5020270;28;20232;-69
2021/12/30 10:56:36;;;;;;;20.97;8.90;;;7.60;99.90;;;;;;5025421;28;20287;-69
2021/12/30 10:59:19;;;;;;;16.47;9.83;;;7.50;99.90;;;;;;5025950;28;20213;-69
2021/12/30 11:01:48;;;;;;;21.40;9.33;;;7.40;99.90;;;;;;5024297;28;20217;-69
2021/12/30 11:04:15;;;;;;;16.67;9.57;;;7.40;99.90;;;;;;5026776;28;20205;-70
2021/12/30 11:06:43;;;;;;;24.40;9.00;;;7.40;99.90;;;;;;5026419;28;20219;-70
2021/12/30 11:09:14;;;;;;;20.37;9.07;;;7.30;99.90;;;;;;5026163;28;20220;-69
2021/12/30 11:11:44;;;;;;;30.87;10.40;;;7.30;99.90;;;;;;5022094;28;20268;-70
2021/12/30 11:14:13;;;;;;;20.73;10.03;;;7.20;99.90;;;;;;5024575;28;20279;-70
2021/12/30 11:17:12;;;;;;;20.77;10.60;;;7.20;99.90;;;;;;5027500;28;20213;-70
2021/12/30 11:19:41;;;;;;;21.93;10.20;;;7.20;99.90;;;;;;4982044;28;20228;-70
2021/12/30 11:22:12;;;;;;;18.63;11.00;;;7.10;99.90;;;;;;5027933;28;20209;-70
2021/12/30 11:24:40;;;;;;;27.40;10.27;;;7.10;99.90;;;;;;5027622;28;20267;-71
2021/12/30 11:27:10;;;;;;;23.63;10.53;;;7.10;99.90;;;;;;5028364;28;20481;-70
2021/12/30 11:29:38;;;;;;;24.00;10.50;;;7.10;99.90;;;;;;5027878;28;20205;-70
2021/12/30 11:32:07;;;;;;;23.23;9.63;;;7.10;99.90;;;;;;5025178;28;20201;-69
2021/12/30 11:34:34;;;;;;;21.37;10.33;;;7.10;99.90;;;;;;5021248;28;20244;-69
2021/12/30 11:37:02;;;;;;;18.67;10.00;;;7.10;99.90;;;;;;5027344;28;20274;-68
2021/12/30 11:39:30;;;;;;;20.27;9.50;;;7.10;99.90;;;;;;5025974;28;20240;-69
2021/12/30 11:42:00;;;;;;;21.33;10.03;;;7.10;99.90;;;;;;5028310;28;20213;-69
2021/12/30 11:44:32;;;;;;;19.17;10.40;;;7.20;99.90;;;;;;5026735;28;20204;-69
2021/12/30 11:47:01;;;;;;;24.30;10.80;;;7.20;99.90;;;;;;5025015;28;20698;-72
2021/12/30 11:49:54;;;;;;;21.53;10.23;;;7.20;99.90;;;;;;5024087;28;20680;-70
2021/12/30 11:53:03;;;;;;;17.40;9.20;;;7.10;99.90;;;;;;5023082;28;20236;-71
2021/12/30 11:56:17;;;;;;;23.50;10.20;;;7.10;99.90;;;;;;5015169;28;20652;-70
2021/12/30 11:58:49;;;;;;;22.13;10.63;;;7.20;99.90;;;;;;5026807;28;20303;-70
2021/12/30 12:01:36;;;;;;;30.80;10.67;;;7.10;99.90;;;;;;5027583;28;20240;-70
2021/12/30 12:04:25;;;;;;;17.47;10.70;;;7.10;99.90;;;;;;5027552;28;20666;-70
2021/12/30 12:07:02;;;;;;;23.63;10.07;;;7.10;99.90;;;;;;5025713;28;20263;-67
2021/12/30 12:09:40;;;;;;;22.00;9.67;;;7.10;99.90;;;;;;5024689;28;20209;-68
2021/12/30 12:12:10;;;;;;;25.57;10.60;;;7.20;99.90;;;;;;5024835;28;20294;-71
2021/12/30 12:14:39;;;;;;;25.33;10.00;;;7.20;99.90;;;;;;5027080;28;20278;-70
2021/12/30 12:17:07;;;;;;;24.50;10.40;;;7.10;99.90;;;;;;5020535;28;20225;-71
2021/12/30 12:19:45;;;;;;;19.23;10.00;;;7.20;99.90;;;;;;5026249;28;20263;-71
2021/12/30 12:22:30;;;;;;;20.40;10.33;;;7.20;99.90;;;;;;5026728;28;20204;-70
2021/12/30 12:25:10;;;;;;;18.80;9.63;;;7.20;99.90;;;;;;5022567;28;20212;-70
2021/12/30 12:27:38;;;;;;;23.30;10.07;;;7.10;99.90;;;;;;5024073;28;20213;-71
2021/12/30 12:30:08;;;;;;;22.63;10.90;;;7.20;99.90;;;;;;5027433;28;20274;-71
2021/12/30 12:32:39;;;;;;;32.80;10.90;;;7.20;99.90;;;;;;5026786;28;20213;-71
2021/12/30 12:35:22;;;;;;;22.27;10.10;;;7.20;99.90;;;;;;5014006;28;20291;-70
2021/12/30 12:37:53;;;;;;;20.40;10.20;;;7.20;99.90;;;;;;5016981;28;20202;-71
2021/12/30 12:40:42;;;;;;;20.47;9.07;;;7.20;99.90;;;;;;5025642;28;20240;-70
2021/12/30 12:43:25;;;;;;;22.10;10.13;;;7.20;99.90;;;;;;5014886;28;20204;-70
2021/12/30 12:45:55;;;;;;;137.87;14.37;;;7.30;99.90;;;;;;5022678;28;20293;-70